Time;durP1;ratioP1;P1;durP2;ratioP2;P2;SDS_P1;SDS_P2;PMS_P1;PMS_P2;Temp;Humidity;BMP_temperature;BMP_pressure;BME280_temperature;BME280_humidity;BME280_pressure;Samples;Min_cycle;Max_cycle;Signal;HPM_P1;HPM_P2
2021/03/28 00:01:24;;;;;;;10.77;3.28;;;7.70;99.90;;;;;;5052131;28;20037;-64
2021/03/28 00:03:55;;;;;;;11.32;3.28;;;7.60;99.90;;;;;;5051726;28;20107;-63
2021/03/28 00:06:36;;;;;;;12.88;3.00;;;7.70;99.90;;;;;;5051070;28;20037;-62
2021/03/28 00:09:34;;;;;;;10.60;3.33;;;7.90;99.90;;;;;;5050977;28;20103;-62
2021/03/28 00:12:36;;;;;;;9.75;3.55;;;7.90;99.90;;;;;;5037651;28;20053;-63
2021/03/28 00:15:11;;;;;;;;;;;7.90;99.90;;;;;;5052286;28;20512;-63
2021/03/28 00:17:50;;;;;;;14.60;3.78;;;7.90;99.90;;;;;;5051884;28;19966;-63
2021/03/28 00:20:16;;;;;;;12.45;3.17;;;7.80;99.90;;;;;;5050820;28;20033;-63
2021/03/28 00:22:58;;;;;;;10.65;3.97;;;7.70;99.90;;;;;;5051743;28;20177;-63
2021/03/28 00:26:02;;;;;;;15.70;3.65;;;7.60;99.90;;;;;;5051898;28;20086;-63
2021/03/28 00:28:45;;;;;;;13.38;3.83;;;7.70;99.90;;;;;;5052203;28;20037;-63
2021/03/28 00:31:28;;;;;;;13.38;3.13;;;7.70;99.90;;;;;;5050869;28;20037;-63
2021/03/28 00:34:18;;;;;;;8.93;3.30;;;7.70;99.90;;;;;;5051987;28;20033;-63
2021/03/28 00:37:07;;;;;;;14.27;3.50;;;7.70;99.90;;;;;;5052052;28;20124;-63
2021/03/28 00:39:48;;;;;;;9.82;3.13;;;7.90;99.90;;;;;;5053022;28;20039;-63
2021/03/28 00:42:30;;;;;;;9.07;3.05;;;7.90;99.90;;;;;;5057023;28;20448;-63
2021/03/28 00:45:36;;;;;;;13.73;3.05;;;7.90;99.90;;;;;;5096136;28;20036;-62
2021/03/28 00:48:07;;;;;;;12.52;2.95;;;8.00;99.90;;;;;;5096149;28;20024;-62
2021/03/28 00:50:51;;;;;;;11.32;2.80;;;8.00;99.90;;;;;;5095101;28;20043;-63
2021/03/28 00:53:31;;;;;;;10.80;2.78;;;8.00;99.90;;;;;;5095009;28;20032;-62
2021/03/28 00:56:16;;;;;;;9.45;2.65;;;8.10;99.90;;;;;;5094767;28;20081;-62
2021/03/28 00:58:57;;;;;;;10.02;2.83;;;8.10;99.90;;;;;;5095046;28;20456;-62
2021/03/28 01:01:28;;;;;;;13.27;2.72;;;8.20;99.90;;;;;;5094862;28;20024;-62
2021/03/28 01:04:24;;;;;;;10.40;3.00;;;8.30;99.90;;;;;;5095211;28;20127;-62
2021/03/28 01:07:01;;;;;;;8.55;1.88;;;8.30;99.90;;;;;;5095736;28;20472;-62
2021/03/28 01:09:33;;;;;;;13.27;2.47;;;8.30;99.90;;;;;;5094816;28;20070;-62
2021/03/28 01:12:48;;;;;;;10.90;2.90;;;8.10;99.90;;;;;;5095403;28;20032;-62
2021/03/28 01:15:23;;;;;;;9.13;3.63;;;7.90;99.90;;;;;;5055412;28;20155;-62
2021/03/28 01:18:07;;;;;;;11.57;3.38;;;7.80;99.90;;;;;;5054901;28;20532;-62
2021/03/28 01:20:51;;;;;;;11.73;2.85;;;7.70;99.90;;;;;;5054206;28;20090;-62
2021/03/28 01:23:38;;;;;;;10.35;2.85;;;7.60;99.90;;;;;;5054054;28;20060;-62
2021/03/28 01:26:39;;;;;;;14.90;3.47;;;7.50;99.90;;;;;;5053551;28;20039;-62
2021/03/28 01:29:29;;;;;;;10.45;2.83;;;7.40;99.90;;;;;;5053816;28;20446;-62
2021/03/28 01:32:06;;;;;;;9.55;2.95;;;7.40;99.90;;;;;;5055004;28;20037;-62
2021/03/28 01:35:12;;;;;;;9.02;2.83;;;7.50;99.90;;;;;;5038636;28;20436;-62
2021/03/28 01:37:47;;;;;;;14.57;3.45;;;7.50;99.90;;;;;;5053374;28;20037;-63
2021/03/28 01:40:22;;;;;;;8.23;2.28;;;7.50;99.90;;;;;;5055007;28;20036;-63
2021/03/28 01:43:10;;;;;;;13.93;3.13;;;7.80;99.90;;;;;;5065178;28;20036;-63
2021/03/28 01:46:01;;;;;;;12.32;2.38;;;7.90;99.90;;;;;;5095111;28;20042;-63
2021/03/28 01:48:52;;;;;;;11.75;2.80;;;8.00;99.90;;;;;;5095088;28;20040;-63
2021/03/28 01:51:43;;;;;;;7.85;2.38;;;8.10;99.90;;;;;;5094486;28;20035;-63
2021/03/28 01:54:17;;;;;;;8.25;1.77;;;8.00;99.90;;;;;;5094906;28;20075;-63
2021/03/28 01:57:11;;;;;;;12.98;2.78;;;8.10;99.90;;;;;;5093797;28;20032;-63
2021/03/28 02:00:08;;;;;;;7.30;2.33;;;8.10;99.90;;;;;;5094841;28;20028;-63
2021/03/28 02:02:53;;;;;;;8.48;2.38;;;8.20;99.90;;;;;;5094253;28;20131;-64
2021/03/28 02:05:44;;;;;;;16.58;2.55;;;8.20;99.90;;;;;;5093669;28;20092;-63
2021/03/28 02:08:41;;;;;;;11.23;2.45;;;8.30;99.90;;;;;;5094448;28;20028;-63
2021/03/28 02:11:47;;;;;;;7.55;2.35;;;8.20;99.90;;;;;;5094633;28;20554;-63
2021/03/28 02:14:41;;;;;;;7.78;2.13;;;8.20;99.90;;;;;;5077521;28;20031;-63
2021/03/28 02:17:46;;;;;;;9.57;2.45;;;8.10;99.90;;;;;;5073981;28;20503;-63
2021/03/28 02:20:38;;;;;;;8.88;2.70;;;7.90;99.90;;;;;;5073074;28;20051;-63
2021/03/28 02:23:38;;;;;;;10.88;2.85;;;7.80;99.90;;;;;;5073979;28;20041;-63
2021/03/28 02:26:24;;;;;;;13.75;2.55;;;7.80;99.90;;;;;;5074014;28;20085;-64
2021/03/28 02:29:04;;;;;;;10.65;3.15;;;7.70;99.90;;;;;;5073934;28;20024;-63
2021/03/28 02:31:37;;;;;;;14.95;2.97;;;7.70;99.90;;;;;;5074134;28;20040;-63
2021/03/28 02:34:23;;;;;;;9.75;2.47;;;7.70;99.90;;;;;;5072745;28;20032;-63
2021/03/28 02:37:12;;;;;;;7.25;1.80;;;7.70;99.90;;;;;;5074082;28;20039;-63
2021/03/28 02:40:07;;;;;;;13.98;2.92;;;7.60;99.90;;;;;;5072453;28;20493;-63
2021/03/28 02:42:56;;;;;;;10.15;2.38;;;7.60;99.90;;;;;;5075556;28;20495;-63
2021/03/28 02:45:30;;;;;;;11.57;2.25;;;7.60;99.90;;;;;;5092557;28;20028;-63
2021/03/28 02:48:32;;;;;;;9.23;2.60;;;7.50;99.90;;;;;;5092298;28;20036;-64
2021/03/28 02:51:23;;;;;;;11.68;2.80;;;7.60;99.90;;;;;;5092417;28;20064;-63
2021/03/28 02:54:35;;;;;;;6.78;2.80;;;7.70;99.90;;;;;;5092277;28;20533;-63
2021/03/28 02:57:25;;;;;;;14.95;3.38;;;7.70;99.90;;;;;;5091132;28;20036;-63
2021/03/28 03:00:06;;;;;;;15.73;3.23;;;7.80;99.90;;;;;;5090963;28;20035;-63
2021/03/28 03:03:00;;;;;;;15.18;3.00;;;7.90;99.90;;;;;;5091942;28;20060;-63
2021/03/28 03:06:01;;;;;;;9.23;2.63;;;7.80;99.90;;;;;;5092169;28;20039;-63
2021/03/28 03:09:00;;;;;;;17.97;3.50;;;7.90;99.90;;;;;;5081406;28;20040;-63
2021/03/28 03:11:53;;;;;;;9.85;2.83;;;7.90;99.90;;;;;;5093612;28;20028;-63
2021/03/28 03:14:56;;;;;;;10.55;2.58;;;7.80;99.90;;;;;;5058375;28;20431;-63
2021/03/28 03:17:55;;;;;;;13.43;3.40;;;7.90;99.90;;;;;;5071623;28;20044;-63
2021/03/28 03:20:44;;;;;;;12.02;2.33;;;7.90;99.90;;;;;;5073167;28;20033;-63
2021/03/28 03:23:56;;;;;;;14.95;2.55;;;7.80;99.90;;;;;;5072783;28;20063;-63
2021/03/28 03:26:46;;;;;;;8.35;2.45;;;7.90;99.90;;;;;;5073032;28;20043;-63
2021/03/28 03:29:59;;;;;;;9.27;2.35;;;7.90;99.90;;;;;;5072822;28;20039;-63
2021/03/28 03:32:43;;;;;;;10.80;2.35;;;7.90;99.90;;;;;;5090665;28;20028;-64
2021/03/28 03:35:49;;;;;;;7.85;1.95;;;7.90;99.90;;;;;;5093007;28;20043;-63
2021/03/28 03:38:53;;;;;;;9.45;2.08;;;7.90;99.90;;;;;;5081122;28;20431;-64
2021/03/28 03:41:41;;;;;;;9.90;2.53;;;8.00;99.90;;;;;;5091984;28;20440;-64
2021/03/28 03:45:16;;;;;;;16.25;2.13;;;8.00;99.90;;;;;;5076139;28;20028;-64
2021/03/28 03:48:21;;;;;;;10.43;2.13;;;8.10;99.90;;;;;;5072649;28;20095;-64
2021/03/28 03:51:33;;;;;;;7.47;2.13;;;8.10;99.90;;;;;;5071507;28;20040;-64
2021/03/28 03:54:59;;;;;;;8.75;2.40;;;8.10;99.90;;;;;;5072500;28;20129;-64
2021/03/28 03:57:41;;;;;;;11.85;2.22;;;8.10;99.90;;;;;;5052359;28;20144;-64
2021/03/28 04:00:14;;;;;;;6.35;2.33;;;8.10;99.90;;;;;;5071192;28;20484;-63
2021/03/28 04:03:20;;;;;;;14.75;2.75;;;8.10;99.90;;;;;;5071020;28;20075;-63
2021/03/28 04:06:23;;;;;;;9.65;2.05;;;8.00;99.90;;;;;;5072517;28;20434;-64
2021/03/28 04:09:01;;;;;;;10.95;3.00;;;7.80;99.90;;;;;;5071156;28;20040;-63
2021/03/28 04:11:46;;;;;;;9.45;2.08;;;7.70;99.90;;;;;;5070931;28;20024;-63
2021/03/28 04:14:49;;;;;;;13.50;2.70;;;7.70;99.90;;;;;;5053814;28;20025;-63
2021/03/28 04:18:02;;;;;;;8.13;1.90;;;7.60;99.90;;;;;;5035600;28;20482;-63
2021/03/28 04:20:54;;;;;;;9.60;2.55;;;7.50;99.90;;;;;;5052422;28;20493;-63
2021/03/28 04:23:39;;;;;;;9.60;2.20;;;7.40;99.90;;;;;;5051768;28;20036;-63
2021/03/28 04:26:20;;;;;;;7.75;2.40;;;7.30;99.90;;;;;;5052178;28;20090;-63
2021/03/28 04:28:53;;;;;;;12.27;2.47;;;7.40;99.90;;;;;;5052188;28;20055;-63
2021/03/28 04:31:46;;;;;;;18.50;2.50;;;7.40;99.90;;;;;;5050815;28;20064;-63
2021/03/28 04:34:39;;;;;;;9.45;2.30;;;7.50;99.90;;;;;;5051768;28;20037;-63
2021/03/28 04:37:35;;;;;;;5.80;2.20;;;7.60;99.90;;;;;;5051757;28;20398;-63
2021/03/28 04:40:54;;;;;;;7.65;1.80;;;7.60;99.90;;;;;;5050537;28;20395;-63
2021/03/28 04:44:22;;;;;;;10.40;2.17;;;7.70;99.90;;;;;;5052231;28;20119;-63
2021/03/28 04:47:12;;;;;;;13.02;2.40;;;7.80;99.90;;;;;;5048457;28;20040;-63
2021/03/28 04:49:56;;;;;;;6.78;2.00;;;7.70;99.90;;;;;;5071838;28;20477;-63
2021/03/28 04:53:05;;;;;;;15.13;2.42;;;7.50;99.90;;;;;;5071798;28;20071;-63
2021/03/28 04:56:08;;;;;;;7.20;2.03;;;7.30;99.90;;;;;;5072036;28;20033;-62
2021/03/28 04:59:33;;;;;;;9.90;2.50;;;7.10;99.90;;;;;;5070870;28;20033;-63
2021/03/28 05:02:48;;;;;;;7.03;2.50;;;7.00;99.90;;;;;;5071893;28;20479;-62
2021/03/28 05:05:39;;;;;;;8.70;2.25;;;7.00;99.90;;;;;;5071955;28;20123;-63
2021/03/28 05:08:52;;;;;;;12.32;2.08;;;7.00;99.90;;;;;;5070671;28;20043;-63
2021/03/28 05:12:02;;;;;;;8.35;2.17;;;7.00;99.90;;;;;;5071746;28;20381;-63
2021/03/28 05:15:24;;;;;;;6.78;1.67;;;7.00;99.90;;;;;;5091212;28;20111;-63
2021/03/28 05:18:32;;;;;;;8.25;1.67;;;6.90;99.90;;;;;;5079365;28;20047;-63
2021/03/28 05:21:27;;;;;;;13.07;2.42;;;6.90;99.90;;;;;;5092026;28;20041;-63
2021/03/28 05:24:44;;;;;;;10.63;2.97;;;6.80;99.90;;;;;;5090780;28;20062;-63
2021/03/28 05:27:28;;;;;;;9.00;2.45;;;6.70;99.90;;;;;;5093909;28;20116;-63
2021/03/28 05:30:19;;;;;;;14.10;2.17;;;6.70;99.90;;;;;;5095509;28;20098;-63
2021/03/28 05:33:17;;;;;;;11.07;2.20;;;6.60;99.90;;;;;;5095448;28;20067;-63
2021/03/28 05:36:24;;;;;;;7.78;1.85;;;6.60;99.90;;;;;;5095450;28;20051;-63
2021/03/28 05:39:33;;;;;;;8.70;2.05;;;6.50;99.90;;;;;;5094356;28;20039;-63
2021/03/28 05:42:37;;;;;;;12.38;2.42;;;6.50;99.90;;;;;;5095213;28;20123;-63
2021/03/28 05:45:20;;;;;;;8.40;3.42;;;6.50;99.90;;;;;;5074726;28;20024;-63
2021/03/28 05:48:14;;;;;;;8.07;1.67;;;6.50;99.90;;;;;;5073357;28;20486;-63
2021/03/28 05:51:24;;;;;;;10.25;1.90;;;6.50;99.90;;;;;;5073376;28;20045;-63
2021/03/28 05:54:42;;;;;;;8.80;2.25;;;6.50;99.90;;;;;;5074842;28;20033;-63
2021/03/28 05:57:41;;;;;;;9.40;2.22;;;6.50;99.90;;;;;;5074602;28;20028;-63
2021/03/28 06:00:56;;;;;;;8.85;1.83;;;6.50;99.90;;;;;;5060633;28;20474;-63
2021/03/28 06:04:06;;;;;;;7.13;2.15;;;6.70;99.90;;;;;;5058384;28;20570;-63
2021/03/28 06:07:25;;;;;;;4.55;1.92;;;6.80;99.90;;;;;;5060581;28;20041;-64
2021/03/28 06:10:46;;;;;;;9.38;2.30;;;6.80;99.90;;;;;;5057418;28;20048;-63
2021/03/28 06:13:39;;;;;;;6.05;2.03;;;7.10;99.90;;;;;;5069105;28;20028;-63
2021/03/28 06:16:30;;;;;;;7.25;2.17;;;7.20;99.90;;;;;;5054023;28;20033;-63
2021/03/28 06:19:39;;;;;;;6.95;2.10;;;7.30;99.90;;;;;;5054011;28;20484;-63
2021/03/28 06:22:36;;;;;;;9.45;2.20;;;7.30;99.90;;;;;;5053929;28;20032;-64
2021/03/28 06:25:48;;;;;;;7.70;2.22;;;7.30;99.90;;;;;;5059666;28;20477;-63
2021/03/28 06:28:38;;;;;;;;;;;7.30;99.90;;;;;;5074026;28;20055;-62
2021/03/28 06:31:40;;;;;;;4.90;2.00;;;7.40;99.90;;;;;;5073952;28;20019;-63
2021/03/28 06:35:03;;;;;;;7.20;2.28;;;7.50;99.90;;;;;;5073617;28;20393;-63
2021/03/28 06:37:57;;;;;;;7.05;2.65;;;7.60;99.90;;;;;;5072086;28;20041;-63
2021/03/28 06:40:56;;;;;;;10.68;3.28;;;7.80;99.90;;;;;;5073773;28;20033;-63
2021/03/28 06:44:05;;;;;;;6.82;1.90;;;8.00;99.90;;;;;;5082588;28;20035;-63
2021/03/28 06:47:11;;;;;;;6.60;2.28;;;8.10;99.90;;;;;;5084820;28;20123;-63
2021/03/28 06:50:34;;;;;;;10.25;2.25;;;8.10;99.90;;;;;;5093485;28;20032;-64
2021/03/28 06:53:17;;;;;;;11.52;1.92;;;8.10;99.90;;;;;;5070727;28;20036;-63
2021/03/28 06:55:45;;;;;;;7.95;2.17;;;8.20;99.90;;;;;;5057117;28;20024;-64
2021/03/28 06:58:50;;;;;;;7.43;1.73;;;8.20;99.90;;;;;;5058229;28;20194;-64
2021/03/28 07:01:43;;;;;;;11.05;2.40;;;8.20;99.90;;;;;;5066318;28;20071;-64
2021/03/28 07:04:46;;;;;;;11.60;1.92;;;8.20;99.90;;;;;;5052661;28;20084;-66
2021/03/28 07:07:49;;;;;;;13.32;2.45;;;8.20;99.90;;;;;;5057514;28;20040;-64
2021/03/28 07:10:39;;;;;;;12.45;2.47;;;8.20;99.90;;;;;;5072520;28;20116;-64
2021/03/28 07:13:55;;;;;;;7.90;2.10;;;8.10;99.90;;;;;;5081068;28;20097;-64
2021/03/28 07:16:54;;;;;;;8.63;2.17;;;8.10;99.90;;;;;;5076177;28;20043;-64
2021/03/28 07:19:58;;;;;;;5.50;2.05;;;8.20;99.90;;;;;;5073019;28;20381;-65
2021/03/28 07:22:54;;;;;;;11.93;2.20;;;8.20;99.90;;;;;;5051749;28;20127;-62
2021/03/28 07:25:24;;;;;;;6.10;1.63;;;8.20;99.90;;;;;;5056116;28;20544;-61
2021/03/28 07:28:23;;;;;;;10.07;3.05;;;8.30;99.90;;;;;;5052826;28;20151;-61
2021/03/28 07:31:40;;;;;;;10.45;1.75;;;8.40;99.90;;;;;;5065423;28;20111;-62
2021/03/28 07:34:27;;;;;;;10.00;2.40;;;8.40;99.90;;;;;;5092047;28;20024;-63
2021/03/28 07:37:36;;;;;;;12.15;2.15;;;8.60;99.90;;;;;;5092972;28;20059;-62
2021/03/28 07:40:21;;;;;;;9.18;2.33;;;8.60;99.90;;;;;;5092996;28;20579;-65
2021/03/28 07:43:12;;;;;;;9.52;1.88;;;8.60;99.90;;;;;;5086175;28;20036;-68
2021/03/28 07:45:57;;;;;;;5.85;2.10;;;8.70;99.90;;;;;;5087053;28;20489;-69
2021/03/28 07:49:03;;;;;;;6.65;2.30;;;8.70;99.90;;;;;;5087250;28;20047;-73
2021/03/28 07:52:06;;;;;;;8.85;2.00;;;8.70;99.90;;;;;;5070994;28;20036;-64
2021/03/28 07:55:11;;;;;;;8.48;2.22;;;8.70;99.90;;;;;;5067949;28;20122;-62
2021/03/28 07:57:43;;;;;;;8.38;2.17;;;8.70;99.90;;;;;;5076723;28;20119;-61
2021/03/28 08:00:36;;;;;;;12.63;2.25;;;8.70;99.90;;;;;;5071604;28;20412;-63
2021/03/28 08:03:46;;;;;;;5.85;1.75;;;8.90;99.90;;;;;;5068535;28;20172;-64
2021/03/28 08:07:06;;;;;;;8.23;2.30;;;9.10;99.90;;;;;;5063858;28;20041;-64
2021/03/28 08:10:05;;;;;;;8.13;2.10;;;9.20;99.90;;;;;;5050874;28;20486;-65
2021/03/28 08:13:11;;;;;;;8.35;1.58;;;9.30;99.90;;;;;;5057324;28;20044;-64
2021/03/28 08:16:27;;;;;;;7.68;2.20;;;9.40;99.90;;;;;;5061469;28;20028;-64
2021/03/28 08:19:36;;;;;;;5.20;1.73;;;9.50;99.90;;;;;;5065879;28;20041;-64
2021/03/28 08:22:30;;;;;;;9.68;1.95;;;9.70;99.90;;;;;;5049016;28;20457;-64
2021/03/28 08:25:31;;;;;;;8.55;2.22;;;9.80;99.90;;;;;;5067986;28;20124;-64
2021/03/28 08:28:06;;;;;;;4.63;1.48;;;9.90;99.90;;;;;;5051842;28;20036;-64
2021/03/28 08:30:54;;;;;;;8.48;1.60;;;9.90;99.90;;;;;;5051949;28;20045;-64
2021/03/28 08:34:16;;;;;;;4.65;1.52;;;10.00;99.90;;;;;;5051872;28;20035;-64
2021/03/28 08:37:18;;;;;;;6.00;1.70;;;10.10;99.90;;;;;;5051806;28;20108;-64
2021/03/28 08:40:17;;;;;;;8.43;2.17;;;10.20;99.90;;;;;;5051993;28;20037;-63
2021/03/28 08:43:19;;;;;;;6.70;1.60;;;10.30;99.90;;;;;;5051925;28;20482;-63
2021/03/28 08:46:29;;;;;;;7.95;2.45;;;10.50;99.90;;;;;;5066475;28;20124;-65
2021/03/28 08:49:10;;;;;;;13.38;2.38;;;10.60;99.90;;;;;;5070134;28;20037;-64
2021/03/28 08:52:30;;;;;;;9.30;1.55;;;10.80;99.90;;;;;;5071471;28;20375;-64
2021/03/28 08:55:31;;;;;;;6.10;1.80;;;10.90;99.90;;;;;;5047361;28;20041;-64
2021/03/28 08:58:23;;;;;;;6.40;1.50;;;11.00;99.70;;;;;;5042092;28;20071;-65
2021/03/28 09:01:18;;;;;;;6.30;1.95;;;11.20;99.20;;;;;;5047289;28;20164;-64
2021/03/28 09:04:30;;;;;;;10.05;1.73;;;11.20;99.10;;;;;;5052585;28;20053;-65
2021/03/28 09:07:33;;;;;;;6.70;1.50;;;11.30;98.90;;;;;;5052844;28;20110;-65
2021/03/28 09:10:04;;;;;;;6.05;2.10;;;11.40;98.90;;;;;;5052953;28;20527;-65
2021/03/28 09:13:26;;;;;;;7.18;1.67;;;11.50;98.60;;;;;;5052237;28;20044;-64
2021/03/28 09:16:20;;;;;;;8.73;2.10;;;11.50;98.40;;;;;;5044653;28;20087;-65
2021/03/28 09:19:08;;;;;;;5.53;1.52;;;11.60;98.00;;;;;;5052188;28;20061;-65
2021/03/28 09:22:04;;;;;;;6.38;1.58;;;11.70;97.40;;;;;;5051591;28;20052;-65
2021/03/28 09:24:56;;;;;;;7.38;1.50;;;11.80;97.60;;;;;;5054247;28;20074;-65
2021/03/28 09:27:43;;;;;;;7.68;1.70;;;11.90;97.60;;;;;;5074156;28;20024;-65
2021/03/28 09:30:35;;;;;;;7.97;1.60;;;12.10;97.40;;;;;;5079762;28;20522;-65
2021/03/28 09:33:21;;;;;;;7.03;1.67;;;12.30;96.40;;;;;;5085978;28;20047;-66
2021/03/28 09:36:03;;;;;;;5.68;1.65;;;12.50;96.40;;;;;;5095203;28;20024;-65
2021/03/28 09:38:41;;;;;;;7.15;1.63;;;12.50;95.80;;;;;;5093986;28;20065;-65
2021/03/28 09:41:20;;;;;;;7.28;1.95;;;12.50;95.60;;;;;;5093632;28;20039;-65
2021/03/28 09:44:30;;;;;;;5.72;1.63;;;12.50;95.90;;;;;;5095040;28;20031;-65
2021/03/28 09:47:18;;;;;;;5.97;1.63;;;12.70;94.80;;;;;;5094808;28;20392;-65
2021/03/28 09:50:24;;;;;;;6.82;1.35;;;12.80;92.80;;;;;;5093947;28;20028;-65
2021/03/28 09:53:33;;;;;;;7.00;1.30;;;12.90;92.20;;;;;;5094979;28;20032;-65
2021/03/28 09:56:58;;;;;;;8.68;1.08;;;13.20;92.20;;;;;;5094730;28;20077;-65
2021/03/28 10:00:16;;;;;;;5.70;1.13;;;13.00;90.40;;;;;;5094710;28;20032;-65
2021/03/28 10:03:27;;;;;;;4.13;1.38;;;13.10;90.00;;;;;;5067047;28;21505;-65
2021/03/28 10:06:17;;;;;;;6.78;1.35;;;13.20;90.50;;;;;;5054496;28;20037;-65
2021/03/28 10:08:50;;;;;;;5.55;1.10;;;13.20;90.00;;;;;;5053139;28;20036;-65
2021/03/28 10:11:37;;;;;;;7.60;1.30;;;13.20;88.10;;;;;;5052894;28;20055;-66
2021/03/28 10:14:14;;;;;;;4.47;1.23;;;13.20;87.40;;;;;;5052633;28;20075;-65
2021/03/28 10:17:12;;;;;;;4.70;1.10;;;13.20;91.20;;;;;;5053708;28;20489;-66
2021/03/28 10:19:45;;;;;;;6.30;1.45;;;13.40;88.40;;;;;;5037317;28;20041;-65
2021/03/28 10:22:55;;;;;;;5.45;1.20;;;13.50;90.00;;;;;;5053202;28;20056;-65
2021/03/28 10:25:37;;;;;;;5.47;1.20;;;13.70;89.30;;;;;;5052382;28;20029;-65
2021/03/28 10:28:45;;;;;;;10.23;2.70;;;13.80;88.00;;;;;;5053694;28;20056;-65
2021/03/28 10:31:32;;;;;;;5.78;1.40;;;13.70;88.00;;;;;;5082561;28;20613;-65
2021/03/28 10:34:24;;;;;;;5.57;1.17;;;13.80;86.00;;;;;;5092890;28;20111;-64
2021/03/28 10:37:20;;;;;;;9.55;1.65;;;13.90;86.00;;;;;;5093059;28;20024;-65
2021/03/28 10:40:16;;;;;;;2.13;0.82;;;14.00;88.00;;;;;;5093972;28;20494;-64
2021/03/28 10:42:46;;;;;;;3.90;1.15;;;14.10;82.30;;;;;;5064255;28;20041;-64
2021/03/28 10:45:26;;;;;;;5.47;1.05;;;14.20;82.30;;;;;;5058321;28;20040;-65
2021/03/28 10:48:38;;;;;;;3.47;1.20;;;14.10;82.00;;;;;;5064939;28;20041;-66
2021/03/28 10:51:15;;;;;;;3.65;0.80;;;14.30;77.70;;;;;;5058847;28;20174;-65
2021/03/28 10:54:08;;;;;;;3.67;1.20;;;14.40;79.60;;;;;;5056884;28;20052;-65
2021/03/28 10:57:23;;;;;;;4.90;1.30;;;14.30;77.90;;;;;;5058949;28;20699;-65
2021/03/28 11:00:32;;;;;;;8.10;1.33;;;14.40;80.50;;;;;;5064796;28;20032;-65
2021/03/28 11:03:51;;;;;;;4.82;1.20;;;14.50;77.50;;;;;;5052588;28;20060;-66
2021/03/28 11:07:06;;;;;;;4.50;1.15;;;14.90;74.40;;;;;;5051640;28;20562;-66
2021/03/28 11:10:21;;;;;;;7.30;1.20;;;14.90;74.50;;;;;;5051681;28;20041;-65
2021/03/28 11:13:15;;;;;;;5.07;1.52;;;14.90;72.10;;;;;;5052713;28;20044;-66
2021/03/28 11:16:12;;;;;;;2.28;0.95;;;14.80;72.80;;;;;;5052827;28;20025;-67
2021/03/28 11:19:25;;;;;;;7.32;1.13;;;14.80;73.10;;;;;;5051898;28;20029;-64
2021/03/28 11:22:25;;;;;;;6.93;2.30;;;15.00;74.30;;;;;;5052667;28;20772;-64
2021/03/28 11:25:19;;;;;;;5.00;1.15;;;15.10;71.30;;;;;;5074127;28;20108;-65
2021/03/28 11:27:54;;;;;;;4.70;1.50;;;15.00;71.20;;;;;;5092174;28;20020;-64
2021/03/28 11:30:40;;;;;;;3.97;1.10;;;15.10;71.60;;;;;;5085125;28;20138;-64
2021/03/28 11:33:34;;;;;;;4.45;1.08;;;15.10;73.80;;;;;;5072883;28;20035;-66
2021/03/28 11:36:02;;;;;;;4.50;1.10;;;15.40;72.10;;;;;;5057534;28;20386;-65
2021/03/28 11:38:38;;;;;;;5.93;1.00;;;15.70;69.60;;;;;;5071431;28;20477;-63
2021/03/28 11:41:07;;;;;;;5.88;1.48;;;15.60;68.40;;;;;;5072324;28;20033;-63
2021/03/28 11:43:53;;;;;;;3.25;0.80;;;15.60;70.60;;;;;;5072479;28;20128;-66
2021/03/28 11:46:36;;;;;;;4.18;1.13;;;15.70;67.90;;;;;;5072660;28;20043;-66
2021/03/28 11:49:07;;;;;;;6.75;1.27;;;15.80;68.30;;;;;;5071565;28;20024;-66
2021/03/28 11:51:36;;;;;;;5.32;1.08;;;16.10;66.60;;;;;;5071498;28;20024;-66
2021/03/28 11:54:08;;;;;;;6.60;1.20;;;16.50;67.20;;;;;;5072601;28;20037;-65
2021/03/28 11:56:56;;;;;;;4.30;1.52;;;16.40;65.90;;;;;;5072492;28;20040;-65
2021/03/28 11:59:26;;;;;;;7.85;1.33;;;16.40;65.80;;;;;;5072452;28;20115;-65
2021/03/28 12:01:55;;;;;;;5.18;1.75;;;16.30;65.20;;;;;;5051843;28;20029;-64
2021/03/28 12:04:33;;;;;;;3.38;1.23;;;16.50;65.10;;;;;;5051969;28;20103;-64
2021/03/28 12:07:34;;;;;;;4.90;1.40;;;16.40;64.80;;;;;;5052359;28;20033;-64
2021/03/28 12:10:00;;;;;;;1.90;0.77;;;16.00;65.30;;;;;;5052509;28;20087;-64
2021/03/28 12:13:11;;;;;;;8.50;1.55;;;15.80;67.80;;;;;;5052140;28;20048;-63
2021/03/28 12:15:43;;;;;;;6.30;1.58;;;16.50;67.20;;;;;;5052203;28;20064;-64
2021/03/28 12:18:24;;;;;;;10.48;1.50;;;17.60;62.00;;;;;;5052353;28;20129;-64
2021/03/28 12:20:59;;;;;;;3.65;1.15;;;17.80;60.10;;;;;;5067586;28;20033;-64
2021/03/28 12:23:47;;;;;;;8.57;1.65;;;18.10;58.90;;;;;;5052264;28;20112;-64
2021/03/28 12:26:25;;;;;;;5.22;1.20;;;18.00;58.20;;;;;;5054564;28;20093;-64
2021/03/28 12:29:06;;;;;;;4.63;1.10;;;18.50;57.20;;;;;;5051970;28;20044;-64
2021/03/28 12:32:00;;;;;;;6.22;1.60;;;18.70;56.70;;;;;;5086839;28;20032;-64
2021/03/28 12:34:35;;;;;;;3.58;1.23;;;19.30;56.10;;;;;;5091758;28;20040;-64
2021/03/28 12:37:25;;;;;;;5.43;1.25;;;20.10;52.80;;;;;;5095183;28;20056;-64
2021/03/28 12:39:50;;;;;;;3.45;1.00;;;20.50;50.90;;;;;;5095077;28;20031;-65
2021/03/28 12:42:34;;;;;;;6.65;1.42;;;21.00;50.40;;;;;;5096384;28;20504;-64
2021/03/28 12:45:09;;;;;;;4.85;1.30;;;20.50;49.90;;;;;;5096500;28;20388;-64
2021/03/28 12:47:47;;;;;;;7.05;1.40;;;20.60;50.10;;;;;;5095974;28;20032;-64
2021/03/28 12:50:17;;;;;;;3.90;1.10;;;19.10;51.40;;;;;;5096175;28;20067;-64
2021/03/28 12:53:13;;;;;;;4.93;1.30;;;19.30;52.00;;;;;;5095964;28;20067;-64
2021/03/28 12:55:47;;;;;;;6.03;1.25;;;18.90;51.60;;;;;;5096051;28;20126;-65
2021/03/28 12:58:17;;;;;;;4.80;1.35;;;19.30;52.10;;;;;;5094899;28;20040;-67
2021/03/28 13:01:01;;;;;;;6.57;1.08;;;20.10;50.50;;;;;;5084394;28;20119;-66
2021/03/28 13:03:39;;;;;;;5.53;1.10;;;19.90;50.70;;;;;;5075074;28;20080;-66
2021/03/28 13:06:23;;;;;;;4.82;1.50;;;20.10;50.00;;;;;;5075573;28;20032;-66
2021/03/28 13:09:24;;;;;;;3.78;1.05;;;19.30;50.20;;;;;;5068641;28;20125;-65
2021/03/28 13:12:20;;;;;;;5.05;1.08;;;19.20;52.00;;;;;;5074424;28;20048;-65
2021/03/28 13:14:49;;;;;;;6.05;1.35;;;19.00;53.80;;;;;;5073991;28;20033;-53
2021/03/28 13:17:15;;;;;;;5.80;1.65;;;20.90;48.60;;;;;;5073158;28;20091;-51
2021/03/28 13:19:53;;;;;;;4.30;1.15;;;20.50;47.60;;;;;;5075202;28;20430;-53
2021/03/28 13:22:43;;;;;;;4.35;1.40;;;21.10;48.60;;;;;;5073894;28;20047;-65
2021/03/28 13:25:35;;;;;;;5.40;1.20;;;20.70;48.50;;;;;;5073931;28;20059;-66
2021/03/28 13:28:10;;;;;;;5.38;1.63;;;21.10;49.00;;;;;;5074542;28;20037;-65
2021/03/28 13:30:41;;;;;;;7.28;1.20;;;20.40;48.80;;;;;;5082867;28;20111;-67
2021/03/28 13:33:40;;;;;;;3.25;1.30;;;20.80;47.60;;;;;;5094383;28;20063;-66
2021/03/28 13:36:31;;;;;;;4.70;1.05;;;21.50;46.70;;;;;;5094254;28;20103;-66
2021/03/28 13:39:15;;;;;;;4.45;1.20;;;21.70;46.60;;;;;;5094567;28;20124;-65
2021/03/28 13:41:57;;;;;;;6.10;1.10;;;21.10;46.90;;;;;;5073757;28;20044;-65
2021/03/28 13:44:47;;;;;;;4.88;0.88;;;20.90;47.50;;;;;;5072400;28;20048;-66
2021/03/28 13:47:13;;;;;;;3.45;1.35;;;20.50;48.10;;;;;;5064437;28;20085;-66
2021/03/28 13:49:49;;;;;;;5.30;1.10;;;20.60;48.40;;;;;;5060676;28;20302;-65
2021/03/28 13:52:21;;;;;;;6.72;1.30;;;21.10;47.70;;;;;;5069354;28;20037;-65
2021/03/28 13:55:09;;;;;;;4.35;1.40;;;21.30;47.00;;;;;;5061876;28;20032;-66
2021/03/28 13:57:39;;;;;;;7.15;1.88;;;21.40;47.10;;;;;;5071177;28;20032;-66
2021/03/28 14:00:11;;;;;;;;;;;22.20;45.70;;;;;;5057490;28;20039;-66
2021/03/28 14:02:41;;;;;;;6.63;1.30;;;22.00;45.30;;;;;;5061998;28;19912;-66
2021/03/28 14:05:18;;;;;;;6.38;1.38;;;21.20;47.20;;;;;;5061081;28;20033;-66
2021/03/28 14:07:46;;;;;;;5.05;1.40;;;20.20;49.00;;;;;;5059138;28;20040;-65
2021/03/28 14:10:33;;;;;;;7.03;1.95;;;20.80;47.90;;;;;;5056186;28;20432;-65
2021/03/28 14:13:33;;;;;;;3.90;1.00;;;19.60;49.50;;;;;;5054107;28;20061;-65
2021/03/28 14:16:01;;;;;;;6.75;1.90;;;19.90;50.40;;;;;;5069124;28;20033;-64
2021/03/28 14:18:49;;;;;;;5.22;1.33;;;20.40;48.20;;;;;;5059555;28;20075;-65
2021/03/28 14:21:34;;;;;;;3.83;1.13;;;19.90;49.20;;;;;;5070832;28;20036;-65
2021/03/28 14:24:02;;;;;;;5.00;1.00;;;20.10;48.40;;;;;;5055811;28;20079;-65
2021/03/28 14:27:00;;;;;;;11.82;3.78;;;19.50;49.30;;;;;;5054174;28;20070;-65
2021/03/28 14:29:41;;;;;;;3.75;1.42;;;20.00;49.10;;;;;;5051864;28;20104;-65
2021/03/28 14:32:13;;;;;;;4.28;1.17;;;20.50;48.30;;;;;;5092958;28;20488;-65
2021/03/28 14:34:56;;;;;;;4.95;1.30;;;20.10;49.40;;;;;;5093455;28;20040;-65
2021/03/28 14:37:59;;;;;;;8.13;1.30;;;19.80;49.90;;;;;;5094037;28;20377;-66
2021/03/28 14:40:49;;;;;;;5.25;1.25;;;20.10;48.40;;;;;;5093807;28;20032;-65
2021/03/28 14:43:15;;;;;;;4.53;1.40;;;19.90;48.80;;;;;;5093944;28;20111;-65
2021/03/28 14:46:00;;;;;;;3.65;1.10;;;19.40;48.80;;;;;;5093615;28;20443;-65
2021/03/28 14:48:59;;;;;;;5.13;1.40;;;19.90;49.30;;;;;;5066805;28;20497;-65
2021/03/28 14:51:43;;;;;;;7.88;1.25;;;19.70;49.70;;;;;;5059307;28;20039;-66
2021/03/28 14:54:19;;;;;;;2.95;0.95;;;19.60;49.70;;;;;;5061786;28;20078;-65
2021/03/28 14:57:10;;;;;;;7.07;1.27;;;19.70;49.70;;;;;;5063003;28;20522;-66
2021/03/28 14:59:49;;;;;;;;;;;19.70;50.10;;;;;;5062379;28;20061;-65